Time;durP1;ratioP1;P1;durP2;ratioP2;P2;SDS_P1;SDS_P2;PMS_P1;PMS_P2;Temp;Humidity;BMP_temperature;BMP_pressure;BME280_temperature;BME280_humidity;BME280_pressure;Samples;Min_cycle;Max_cycle;Signal;HPM_P1;HPM_P2
2022/06/26 00:00:04;;;;;;;2.35;1.60;;;;;;;26.87;46.23;100804.31;5051696;28;20048;-76
2022/06/26 00:02:34;;;;;;;;;;;;;;;26.90;46.09;100802.22;5059763;28;20049;-76
2022/06/26 00:05:02;;;;;;;2.92;1.90;;;;;;;26.91;46.19;100812.09;5051435;28;19921;-77
2022/06/26 00:07:30;;;;;;;4.57;1.95;;;;;;;26.91;46.27;100818.38;5051488;28;20104;-77
2022/06/26 00:09:57;;;;;;;4.60;1.75;;;;;;;26.93;46.41;100826.31;5051816;28;20056;-77
2022/06/26 00:12:25;;;;;;;3.65;2.10;;;;;;;26.94;46.20;100823.44;5058185;28;20059;-76
2022/06/26 00:14:52;;;;;;;3.92;1.98;;;;;;;26.96;46.36;100823.25;5072064;28;20052;-76
2022/06/26 00:17:20;;;;;;;4.88;2.25;;;;;;;26.95;46.24;100825.13;5073203;28;20048;-76
2022/06/26 00:19:47;;;;;;;4.00;1.83;;;;;;;26.96;46.06;100825.97;5072529;28;20110;-76
2022/06/26 00:22:14;;;;;;;3.90;1.80;;;;;;;26.97;46.41;100827.66;5072151;28;20407;-76
2022/06/26 00:24:42;;;;;;;2.85;1.60;;;;;;;26.99;46.39;100831.03;5071251;28;20049;-76
2022/06/26 00:27:09;;;;;;;5.82;2.10;;;;;;;26.98;45.85;100829.34;5072820;28;20372;-76
2022/06/26 00:29:37;;;;;;;4.45;2.20;;;;;;;26.98;45.99;100830.19;5070751;28;20048;-76
2022/06/26 00:32:05;;;;;;;2.83;1.60;;;;;;;26.98;45.63;100830.19;5071133;28;20415;-76
2022/06/26 00:34:32;;;;;;;3.42;1.80;;;;;;;27.00;45.42;100838.16;5073149;28;20404;-76
2022/06/26 00:37:00;;;;;;;3.60;1.65;;;;;;;27.00;45.67;100827.28;5088548;28;20056;-76
2022/06/26 00:39:27;;;;;;;4.72;1.80;;;;;;;27.00;45.66;100832.72;5088322;28;20048;-76
2022/06/26 00:41:54;;;;;;;4.75;1.92;;;;;;;27.00;45.61;100828.13;5072569;28;20056;-76
2022/06/26 00:44:24;;;;;;;3.70;2.28;;;;;;;27.01;45.43;100826.25;5072501;28;20407;-76
2022/06/26 00:46:52;;;;;;;4.03;1.73;;;;;;;27.01;45.31;100828.97;5070968;28;20052;-77
2022/06/26 00:49:20;;;;;;;3.25;1.92;;;;;;;27.01;45.28;100829.81;5070961;28;20404;-77
2022/06/26 00:51:51;;;;;;;3.55;1.83;;;;;;;27.01;45.14;100832.53;5072639;28;20048;-77
2022/06/26 00:54:26;;;;;;;3.05;2.20;;;;;;;27.03;45.01;100838.66;5072006;28;20040;-77
2022/06/26 00:56:58;;;;;;;2.25;1.77;;;;;;;27.02;44.94;100836.97;5074148;28;20103;-77
2022/06/26 00:59:27;;;;;;;3.30;1.80;;;;;;;27.02;45.19;100845.13;5075479;28;20068;-76
2022/06/26 01:01:55;;;;;;;3.13;1.98;;;;;;;27.03;44.84;100846.78;5075721;28;20052;-76
2022/06/26 01:04:22;;;;;;;2.75;1.88;;;;;;;27.03;44.98;100844.06;5076570;28;20040;-76
2022/06/26 01:06:54;;;;;;;3.53;1.60;;;;;;;27.03;44.65;100844.06;5075338;28;20040;-78
2022/06/26 01:09:25;;;;;;;3.40;1.60;;;;;;;27.03;44.79;100830.50;5074801;28;20052;-76
2022/06/26 01:11:53;;;;;;;6.25;2.13;;;;;;;27.03;44.64;100827.78;5074462;28;20052;-76
2022/06/26 01:14:21;;;;;;;3.92;1.90;;;;;;;27.03;44.62;100830.50;5074378;28;20036;-77
2022/06/26 01:16:49;;;;;;;3.75;2.03;;;;;;;27.04;44.88;100826.75;5074174;28;20060;-76
2022/06/26 01:19:19;;;;;;;4.70;2.08;;;;;;;27.04;44.68;100820.47;5091103;28;20059;-78
2022/06/26 01:21:46;;;;;;;2.97;2.00;;;;;;;27.03;44.46;100825.06;5075047;28;20381;-78
2022/06/26 01:24:14;;;;;;;2.40;1.42;;;;;;;27.04;44.47;100825.91;5091562;28;20060;-76
2022/06/26 01:26:42;;;;;;;3.25;1.67;;;;;;;27.04;44.58;100821.31;5075924;28;20044;-76
2022/06/26 01:29:09;;;;;;;3.47;1.55;;;;;;;27.05;44.73;100822.97;5091222;28;20049;-77
2022/06/26 01:31:37;;;;;;;2.95;2.00;;;;;;;27.06;44.75;100818.41;5074462;28;20056;-76
2022/06/26 01:34:08;;;;;;;3.40;1.98;;;;;;;27.06;44.74;100819.25;5074487;28;20519;-76
2022/06/26 01:36:36;;;;;;;3.88;2.15;;;;;;;27.05;44.46;100814.84;5075877;28;20048;-76
2022/06/26 01:39:04;;;;;;;3.17;1.70;;;;;;;27.06;44.47;100816.53;5074935;28;20052;-77
2022/06/26 01:41:32;;;;;;;3.42;1.42;;;;;;;27.06;44.44;100821.97;5074313;28;20053;-76
2022/06/26 01:44:00;;;;;;;3.88;1.50;;;;;;;27.06;44.52;100823.81;5074873;28;20055;-77
2022/06/26 01:46:28;;;;;;;4.88;1.45;;;;;;;27.07;44.41;100817.38;5074036;28;20053;-77
2022/06/26 01:48:57;;;;;;;4.13;1.98;;;;;;;27.07;44.63;100820.09;5074791;28;20482;-76
2022/06/26 01:51:25;;;;;;;4.47;1.90;;;;;;;27.06;44.51;100816.53;5074452;28;20435;-74
2022/06/26 01:53:52;;;;;;;3.60;1.83;;;;;;;27.08;44.62;100816.34;5057500;28;20052;-74
2022/06/26 01:56:20;;;;;;;2.58;1.77;;;;;;;27.07;44.36;100826.38;5074407;28;20053;-74
2022/06/26 01:58:50;;;;;;;2.50;1.88;;;;;;;27.08;44.24;100828.06;5073952;28;20417;-74
2022/06/26 02:01:38;;;;;;;3.53;1.73;;;;;;;27.08;44.29;100822.63;5073852;28;20057;-76
2022/06/26 02:04:06;;;;;;;2.53;1.83;;;;;;;27.08;44.30;100817.19;5074721;28;20407;-78
2022/06/26 02:06:33;;;;;;;3.55;1.77;;;;;;;27.07;44.37;100829.09;5074008;28;20051;-78
2022/06/26 02:09:00;;;;;;;2.88;2.03;;;;;;;27.07;44.34;100820.94;5056997;28;20057;-78
2022/06/26 02:14:14;;;;;;;3.35;1.63;;;;;;;27.08;44.23;100822.63;5074342;28;20111;-77
2022/06/26 02:16:48;;;;;;;3.05;1.70;;;;;;;27.08;44.17;100819.91;5073439;28;20492;-80
2022/06/26 02:19:16;;;;;;;2.80;1.80;;;;;;;27.08;43.94;100825.34;5074575;28;20048;-77
2022/06/26 02:21:43;;;;;;;3.67;1.88;;;;;;;27.10;44.09;100825.19;5075152;28;20052;-77
2022/06/26 02:24:11;;;;;;;3.60;1.95;;;;;;;27.08;44.10;100822.63;5073158;28;20056;-77
2022/06/26 02:26:38;;;;;;;3.53;1.50;;;;;;;27.08;44.18;100828.06;5073508;28;20428;-77
2022/06/26 02:29:05;;;;;;;2.22;1.67;;;;;;;27.09;43.95;100820.75;5090299;28;20044;-77
2022/06/26 02:31:33;;;;;;;4.68;1.60;;;;;;;27.09;44.41;100824.31;5073744;28;20060;-78
2022/06/26 02:34:01;;;;;;;3.30;1.60;;;;;;;27.08;42.17;100827.22;5057321;28;20056;-76
2022/06/26 02:36:28;;;;;;;3.55;2.08;;;;;;;27.03;41.29;100832.38;5073867;28;20373;-79
2022/06/26 02:38:56;;;;;;;6.50;1.77;;;;;;;27.00;41.34;100832.72;5073177;28;20045;-77
2022/06/26 02:41:23;;;;;;;2.97;1.70;;;;;;;26.94;41.67;100842.47;5073097;28;20044;-78
2022/06/26 02:43:50;;;;;;;3.22;1.52;;;;;;;26.92;41.54;100849.09;5075788;28;20041;-79
2022/06/26 02:46:19;;;;;;;2.60;1.60;;;;;;;26.89;41.13;100844.84;5074018;28;20056;-79
2022/06/26 02:48:48;;;;;;;2.53;1.45;;;;;;;26.88;41.25;100854.03;5073857;28;20123;-78
2022/06/26 02:51:18;;;;;;;2.47;1.45;;;;;;;26.86;40.18;100846.09;5073838;28;20053;-79
2022/06/26 02:53:46;;;;;;;2.20;1.30;;;;;;;26.85;40.10;100848.97;5067970;28;20060;-80
2022/06/26 02:56:14;;;;;;;2.25;1.65;;;;;;;26.83;39.99;100856.47;5054147;28;20412;-80
2022/06/26 02:58:41;;;;;;;3.28;1.40;;;;;;;26.82;39.74;100852.06;5054208;28;20049;-79
2022/06/26 03:01:10;;;;;;;2.67;1.30;;;;;;;26.79;39.84;100857.84;5054014;28;20409;-79
2022/06/26 03:03:39;;;;;;;3.05;1.60;;;;;;;26.75;39.54;100854.66;5053952;28;20060;-79
2022/06/26 03:06:09;;;;;;;4.03;1.48;;;;;;;26.73;39.63;100856.69;5053107;28;20053;-79
2022/06/26 03:08:37;;;;;;;3.35;1.75;;;;;;;26.72;39.45;100857.72;5053065;28;20052;-79
2022/06/26 03:11:05;;;;;;;5.50;2.20;;;;;;;26.69;39.44;100851.78;5053526;28;20049;-79
2022/06/26 03:13:33;;;;;;;3.30;1.70;;;;;;;26.67;39.65;100860.13;5053534;28;20049;-79
2022/06/26 03:16:00;;;;;;;4.00;1.55;;;;;;;26.66;39.96;100863.00;5064737;28;20052;-77
2022/06/26 03:18:28;;;;;;;2.67;1.42;;;;;;;26.65;39.70;100858.59;5073096;28;20493;-79
2022/06/26 03:20:56;;;;;;;2.72;1.55;;;;;;;26.61;39.67;100867.09;5072643;28;20056;-79
2022/06/26 03:24:01;;;;;;;2.72;1.60;;;;;;;26.57;39.91;100868.50;5072788;28;20549;-79
2022/06/26 03:26:12;;;;;;;3.80;1.73;;;;;;;26.51;40.22;100861.06;5090076;28;20052;-79
2022/06/26 03:28:39;;;;;;;4.00;1.67;;;;;;;26.49;40.51;100870.41;5072991;28;20055;-79
2022/06/26 03:31:07;;;;;;;2.92;1.77;;;;;;;26.46;40.08;100881.66;5073750;28;20048;-79
2022/06/26 03:33:35;;;;;;;2.28;1.45;;;;;;;26.45;40.33;100874.50;5073095;28;20045;-79
2022/06/26 03:36:02;;;;;;;3.33;1.60;;;;;;;26.44;40.38;100881.78;5073234;28;20056;-79
2022/06/26 03:38:31;;;;;;;3.22;2.00;;;;;;;26.45;40.48;100888.06;5073397;28;20072;-79
2022/06/26 03:40:58;;;;;;;2.80;1.63;;;;;;;26.47;40.42;100880.63;5073297;28;20491;-79
2022/06/26 03:43:25;;;;;;;3.20;1.92;;;;;;;26.46;40.45;100879.78;5072742;28;20056;-79
2022/06/26 03:45:53;;;;;;;2.85;1.67;;;;;;;26.48;40.64;100890.44;5056659;28;20052;-79
2022/06/26 03:48:22;;;;;;;2.92;1.55;;;;;;;26.48;40.16;100880.44;5072095;28;20053;-79
2022/06/26 03:50:53;;;;;;;2.65;1.73;;;;;;;26.48;40.31;100885.00;5071899;28;20044;-79
2022/06/26 03:53:22;;;;;;;2.75;1.63;;;;;;;26.48;40.23;100879.59;5072538;28;20059;-79
2022/06/26 03:55:51;;;;;;;2.70;1.40;;;;;;;26.49;40.06;100882.13;5072612;28;20056;-79
2022/06/26 03:58:22;;;;;;;3.38;1.70;;;;;;;26.48;39.97;100885.84;5073399;28;20056;-80
2022/06/26 04:00:52;;;;;;;3.42;1.83;;;;;;;26.48;39.88;100877.72;5073307;28;20407;-79
2022/06/26 04:03:20;;;;;;;2.63;1.42;;;;;;;26.48;39.69;100885.84;5072750;28;20048;-79
2022/06/26 04:05:49;;;;;;;4.60;1.55;;;;;;;26.47;39.69;100894.19;5073556;28;20052;-79
2022/06/26 04:08:19;;;;;;;2.83;1.95;;;;;;;26.47;39.92;100892.31;5072318;28;20048;-79
2022/06/26 04:11:00;;;;;;;3.05;1.60;;;;;;;26.48;40.07;100896.72;5072362;28;20052;-79
2022/06/26 04:13:33;;;;;;;2.75;1.40;;;;;;;26.49;39.92;100901.13;5071764;28;20060;-79
2022/06/26 04:16:01;;;;;;;3.95;1.67;;;;;;;26.49;39.92;100897.56;5055632;28;20059;-79
2022/06/26 04:18:30;;;;;;;4.60;1.60;;;;;;;26.50;39.60;100902.84;5072370;28;20488;-79
2022/06/26 04:20:57;;;;;;;2.20;1.55;;;;;;;26.50;39.79;100904.69;5071999;28;20056;-79
2022/06/26 04:23:25;;;;;;;4.07;1.85;;;;;;;26.51;39.98;100911.81;5088889;28;20090;-79
2022/06/26 04:25:59;;;;;;;3.47;1.83;;;;;;;26.49;39.57;100909.25;5072431;28;20061;-79
2022/06/26 04:28:26;;;;;;;3.05;1.90;;;;;;;26.47;39.66;100916.75;5071733;28;20403;-79
2022/06/26 04:30:57;;;;;;;3.70;1.80;;;;;;;26.43;39.41;100919.97;5072542;28;20052;-79
2022/06/26 04:33:24;;;;;;;2.85;1.35;;;;;;;26.41;39.58;100922.84;5076770;28;20408;-79
2022/06/26 04:35:52;;;;;;;3.45;1.60;;;;;;;26.40;39.59;100929.31;5076388;28;20503;-79
2022/06/26 04:38:19;;;;;;;3.50;1.60;;;;;;;26.37;39.46;100926.94;5076710;28;20036;-79
2022/06/26 04:40:47;;;;;;;3.83;1.52;;;;;;;26.34;39.62;100925.44;5076255;28;20389;-79
2022/06/26 04:43:14;;;;;;;3.42;1.65;;;;;;;26.31;39.44;100927.66;5075955;28;20048;-79
2022/06/26 04:45:44;;;;;;;4.05;1.67;;;;;;;26.27;39.71;100937.16;5076138;28;20052;-79
2022/06/26 04:48:12;;;;;;;2.30;1.73;;;;;;;26.23;39.81;100936.66;5075974;28;20052;-79
2022/06/26 04:50:40;;;;;;;3.17;1.83;;;;;;;26.22;40.15;100936.84;5076099;28;20056;-80
2022/06/26 04:53:08;;;;;;;4.72;2.13;;;;;;;26.20;40.62;100949.72;5059803;28;20051;-79
2022/06/26 04:55:37;;;;;;;2.75;1.60;;;;;;;26.18;40.71;100949.06;5062618;28;20049;-79
2022/06/26 04:58:04;;;;;;;3.13;1.65;;;;;;;26.16;40.88;100951.09;5039394;28;20052;-79
2022/06/26 05:00:34;;;;;;;2.40;1.85;;;;;;;26.16;40.75;100945.66;5055012;28;20048;-80
2022/06/26 05:03:14;;;;;;;3.97;1.65;;;;;;;26.18;40.77;100951.78;5055552;28;20499;-79
2022/06/26 05:06:17;;;;;;;2.80;1.50;;;;;;;26.20;40.67;100953.28;5035294;28;20045;-79
2022/06/26 05:08:50;;;;;;;4.00;1.70;;;;;;;26.21;40.48;100955.00;5019555;28;20045;-79
2022/06/26 05:11:19;;;;;;;3.22;1.95;;;;;;;26.20;40.39;100958.72;5018265;28;20054;-79
2022/06/26 05:13:51;;;;;;;3.45;1.75;;;;;;;26.20;40.40;100963.31;5018414;28;20065;-78
2022/06/26 05:16:37;;;;;;;3.47;1.63;;;;;;;26.20;40.62;100957.88;5018561;28;20053;-79
2022/06/26 05:19:06;;;;;;;3.42;1.63;;;;;;;26.21;40.62;100957.72;5036133;28;20083;-79
2022/06/26 05:21:35;;;;;;;3.22;1.35;;;;;;;26.22;41.07;100956.69;5037543;28;20053;-79
2022/06/26 05:24:03;;;;;;;3.13;1.45;;;;;;;26.25;41.27;100964.50;5054460;28;20586;-79
2022/06/26 05:26:31;;;;;;;3.70;1.50;;;;;;;26.29;41.49;100973.09;5036928;28;20048;-79
2022/06/26 05:28:59;;;;;;;3.75;1.60;;;;;;;26.30;41.31;100974.81;5053077;28;20044;-78
2022/06/26 05:31:26;;;;;;;3.67;1.60;;;;;;;26.31;41.22;100976.50;5037006;28;20534;-79
2022/06/26 05:33:54;;;;;;;3.08;1.38;;;;;;;26.32;41.14;100980.91;5052505;28;20370;-79
2022/06/26 05:36:21;;;;;;;2.65;1.50;;;;;;;26.33;40.96;100974.44;5020236;28;20048;-79
2022/06/26 05:38:49;;;;;;;3.42;1.90;;;;;;;26.34;41.06;100981.59;5036447;28;20045;-79
2022/06/26 05:41:16;;;;;;;2.60;1.55;;;;;;;26.35;40.73;100980.56;5054626;28;20504;-79
2022/06/26 05:43:45;;;;;;;2.83;1.83;;;;;;;26.33;41.51;100982.59;5071894;28;20053;-80
2022/06/26 05:46:13;;;;;;;3.15;1.50;;;;;;;26.33;41.40;100974.44;5055358;28;20057;-79
2022/06/26 05:48:53;;;;;;;3.67;2.53;;;;;;;26.33;41.79;100988.00;5077420;28;20441;-80
2022/06/26 05:51:39;;;;;;;3.15;1.75;;;;;;;26.32;42.03;100991.75;5055130;28;20059;-80
2022/06/26 05:54:18;;;;;;;2.90;1.65;;;;;;;26.32;42.90;100984.47;5055189;28;20052;-80
2022/06/26 05:57:04;;;;;;;3.78;1.70;;;;;;;26.32;42.28;100987.16;5064301;28;20477;-79
2022/06/26 05:59:46;;;;;;;3.65;1.52;;;;;;;26.33;42.57;100983.47;5055227;28;20053;-80
2022/06/26 06:02:51;;;;;;;3.20;1.70;;;;;;;26.34;42.64;100985.16;5056357;28;20495;-79
2022/06/26 06:05:21;;;;;;;5.13;1.63;;;;;;;26.36;42.35;100988.50;5053920;28;20075;-77
2022/06/26 06:07:49;;;;;;;4.32;1.48;;;;;;;26.37;42.49;100986.66;5054110;28;20053;-79
2022/06/26 06:10:18;;;;;;;2.75;1.50;;;;;;;26.39;42.30;100984.63;5053698;28;20052;-79
2022/06/26 06:12:48;;;;;;;5.28;1.30;;;;;;;26.41;41.93;100974.41;5054387;28;20056;-79
2022/06/26 06:15:17;;;;;;;2.83;1.50;;;;;;;26.43;41.70;100979.69;5070179;28;20041;-79
2022/06/26 06:17:47;;;;;;;4.75;1.48;;;;;;;26.43;40.97;100974.25;5038808;28;20053;-80
2022/06/26 06:20:20;;;;;;;6.22;1.60;;;;;;;26.44;40.76;100982.22;5073176;28;20040;-79
2022/06/26 06:22:54;;;;;;;3.50;1.48;;;;;;;26.44;41.42;100990.38;5091066;28;20063;-80
2022/06/26 06:25:23;;;;;;;4.25;1.40;;;;;;;26.46;41.11;100984.81;5074369;28;20048;-81
2022/06/26 06:27:51;;;;;;;3.17;1.90;;;;;;;26.47;41.06;100984.63;5074270;28;20491;-77
2022/06/26 06:30:23;;;;;;;3.17;1.80;;;;;;;26.48;41.21;100989.03;5089880;28;20131;-77
2022/06/26 06:32:52;;;;;;;2.83;1.55;;;;;;;26.49;41.22;100985.28;5073544;28;20045;-78
2022/06/26 06:35:32;;;;;;;3.67;1.83;;;;;;;26.50;41.33;100986.16;5073467;28;20048;-77
2022/06/26 06:38:00;;;;;;;5.07;1.80;;;;;;;26.51;42.06;100991.41;5073462;28;20048;-79
2022/06/26 06:40:30;;;;;;;3.88;1.67;;;;;;;26.54;42.08;100984.78;5073559;28;20045;-79
2022/06/26 06:43:01;;;;;;;2.20;1.33;;;;;;;26.55;42.04;100981.03;5073672;28;20052;-79
2022/06/26 06:45:51;;;;;;;3.55;1.52;;;;;;;26.57;42.03;100990.69;5075001;28;20056;-80
2022/06/26 06:48:24;;;;;;;6.53;1.98;;;;;;;26.59;42.37;100983.22;5074736;28;20056;-80
2022/06/26 06:51:10;;;;;;;2.90;1.58;;;;;;;26.62;42.45;100990.19;5081032;28;20392;-79
2022/06/26 06:53:40;;;;;;;3.15;1.23;;;;;;;26.62;42.86;100993.72;5073027;28;20048;-84
2022/06/26 06:56:07;;;;;;;4.00;1.50;;;;;;;26.65;42.80;101002.53;5072825;28;20059;-79
2022/06/26 06:58:35;;;;;;;5.25;1.80;;;;;;;26.65;42.88;100995.22;5089760;28;20048;-79
2022/06/26 07:01:06;;;;;;;4.00;1.90;;;;;;;26.66;42.85;100994.22;5073964;28;20111;-79
2022/06/26 07:03:33;;;;;;;2.58;1.48;;;;;;;26.68;43.05;101003.03;5073319;28;20059;-78
2022/06/26 07:06:01;;;;;;;4.07;1.95;;;;;;;26.70;43.15;101000.13;5074752;28;20049;-79
2022/06/26 07:08:28;;;;;;;3.33;1.70;;;;;;;26.71;43.27;100993.69;5073315;28;20056;-79
2022/06/26 07:10:56;;;;;;;6.07;1.63;;;;;;;26.71;43.28;100999.97;5072863;28;20044;-79
2022/06/26 07:13:23;;;;;;;4.70;1.48;;;;;;;26.73;43.35;100999.78;5090164;28;20056;-79
2022/06/26 07:15:51;;;;;;;3.05;1.40;;;;;;;26.73;43.33;100994.34;5073443;28;20061;-78
2022/06/26 07:18:19;;;;;;;3.58;1.65;;;;;;;26.74;43.38;101006.91;5073668;28;20052;-79
2022/06/26 07:20:47;;;;;;;2.63;1.65;;;;;;;26.76;43.30;101011.16;5071614;28;20051;-79
2022/06/26 07:23:14;;;;;;;2.90;1.70;;;;;;;26.77;43.35;101012.84;5074154;28;20052;-79
2022/06/26 07:25:55;;;;;;;3.65;1.63;;;;;;;26.79;43.31;101007.25;5074140;28;20500;-79
2022/06/26 07:28:29;;;;;;;6.45;1.67;;;;;;;26.79;43.28;101009.97;5073143;28;20052;-79
2022/06/26 07:30:57;;;;;;;5.05;2.30;;;;;;;26.82;43.29;101015.03;5074152;28;20049;-80
2022/06/26 07:36:14;;;;;;;5.72;1.50;;;;;;;26.83;43.59;101014.00;5072820;28;20067;-79
2022/06/26 07:38:42;;;;;;;5.80;1.80;;;;;;;26.83;42.60;101012.13;5073052;28;20063;-81
2022/06/26 07:41:09;;;;;;;3.83;1.83;;;;;;;26.83;41.97;101011.28;5072614;28;20081;-79
2022/06/26 07:43:37;;;;;;;3.08;1.58;;;;;;;26.84;42.52;101021.97;5074851;28;20393;-78
2022/06/26 07:46:04;;;;;;;4.68;1.60;;;;;;;26.84;42.48;101021.13;5056613;28;20056;-78
2022/06/26 07:48:33;;;;;;;2.50;1.48;;;;;;;26.85;42.54;101017.38;5056422;28;20044;-79
2022/06/26 07:51:02;;;;;;;3.13;1.58;;;;;;;26.86;42.51;101025.38;5072738;28;20048;-79
2022/06/26 07:53:31;;;;;;;4.70;1.67;;;;;;;26.85;42.43;101025.53;5074167;28;20044;-79
2022/06/26 07:55:59;;;;;;;4.10;1.70;;;;;;;26.86;42.23;101024.53;5071881;28;20044;-78
2022/06/26 07:58:26;;;;;;;4.40;1.75;;;;;;;26.87;42.12;101031.66;5072875;28;20060;-77
2022/06/26 08:00:54;;;;;;;3.95;1.90;;;;;;;26.87;42.33;101028.94;5073792;28;20051;-76
2022/06/26 08:03:21;;;;;;;2.83;1.83;;;;;;;26.88;42.35;101027.91;5072949;28;20044;-77
2022/06/26 08:05:48;;;;;;;3.95;2.00;;;;;;;26.87;42.22;101032.50;5072701;28;20045;-77
2022/06/26 08:08:16;;;;;;;3.78;1.98;;;;;;;26.87;41.95;101027.06;5073028;28;20056;-79
2022/06/26 08:10:43;;;;;;;3.15;1.88;;;;;;;26.89;41.43;101032.31;5071515;28;20518;-79
2022/06/26 08:13:10;;;;;;;4.78;1.88;;;;;;;26.88;41.21;101023.31;5072672;28;20407;-77
2022/06/26 08:15:38;;;;;;;3.13;1.80;;;;;;;26.91;41.59;101024.00;5072884;28;20045;-76
2022/06/26 08:18:07;;;;;;;4.07;1.63;;;;;;;26.92;40.83;101031.97;5072724;28;20044;-76
2022/06/26 08:20:34;;;;;;;2.95;1.90;;;;;;;26.92;40.97;101025.69;5071957;28;20234;-77
2022/06/26 08:23:02;;;;;;;2.90;1.65;;;;;;;26.92;39.99;101021.09;5073197;28;20045;-79
2022/06/26 08:25:29;;;;;;;2.30;1.58;;;;;;;26.94;40.73;101012.75;5074342;28;20040;-81
2022/06/26 08:27:56;;;;;;;2.50;1.58;;;;;;;26.95;40.85;101020.75;5072066;28;20055;-80
2022/06/26 08:30:24;;;;;;;2.50;1.55;;;;;;;26.96;41.20;101018.88;5071481;28;20056;-81
2022/06/26 08:32:54;;;;;;;3.85;1.80;;;;;;;26.97;41.62;101015.13;5073571;28;20044;-78
2022/06/26 08:35:21;;;;;;;4.90;1.98;;;;;;;26.98;41.49;101006.81;5073138;28;20079;-79
2022/06/26 08:37:49;;;;;;;3.22;1.60;;;;;;;26.99;41.76;101013.09;5056386;28;20055;-79
2022/06/26 08:40:19;;;;;;;4.55;1.70;;;;;;;26.99;41.58;101011.22;5073008;28;20048;-79
2022/06/26 08:42:49;;;;;;;3.20;1.83;;;;;;;27.00;41.99;101015.63;5072773;28;20052;-79
2022/06/26 08:45:21;;;;;;;2.80;1.83;;;;;;;27.00;42.12;101007.47;5072773;28;20056;-80
2022/06/26 08:47:52;;;;;;;4.22;1.83;;;;;;;27.01;42.08;101008.31;5072644;28;20052;-81
2022/06/26 08:50:21;;;;;;;4.95;1.73;;;;;;;27.01;42.18;101011.88;5074141;28;20049;-79
2022/06/26 08:52:51;;;;;;;3.20;1.60;;;;;;;27.04;42.35;101019.66;5073700;28;20047;-79
2022/06/26 08:55:20;;;;;;;3.85;2.00;;;;;;;27.03;42.19;101026.13;5071813;28;20048;-86
2022/06/26 08:57:48;;;;;;;6.95;1.92;;;;;;;27.04;42.43;101019.66;5073951;28;20059;-83
2022/06/26 09:00:16;;;;;;;4.57;1.85;;;;;;;27.04;42.21;101016.94;5074584;28;20044;-81
2022/06/26 09:02:46;;;;;;;6.28;2.20;;;;;;;27.06;42.60;101017.63;5073753;28;20044;-80
2022/06/26 09:05:13;;;;;;;8.20;2.15;;;;;;;27.08;42.76;101018.28;5073824;28;20060;-81
2022/06/26 09:07:52;;;;;;;5.15;1.98;;;;;;;27.08;42.99;101012.84;5072276;28;20075;-80
2022/06/26 09:10:20;;;;;;;5.03;2.00;;;;;;;27.10;42.94;101020.84;5073452;28;20062;-81
2022/06/26 09:12:58;;;;;;;6.40;2.10;;;;;;;27.10;42.78;101012.69;5074841;28;20049;-81
2022/06/26 09:15:25;;;;;;;4.35;1.85;;;;;;;27.12;43.13;101018.81;5074792;28;20051;-79
2022/06/26 09:18:04;;;;;;;5.70;2.00;;;;;;;27.13;42.24;101014.22;5074113;28;20048;-80
2022/06/26 09:20:34;;;;;;;4.55;1.65;;;;;;;27.13;42.24;101008.78;5059575;28;20407;-82
2022/06/26 09:23:03;;;;;;;5.55;2.10;;;;;;;27.14;42.33;100999.59;5073168;28;20052;-80
2022/06/26 09:25:43;;;;;;;5.07;1.70;;;;;;;27.13;42.50;101001.47;5076696;28;20040;-82
2022/06/26 09:28:19;;;;;;;4.45;2.05;;;;;;;27.14;42.66;100996.88;5078325;28;20045;-82
2022/06/26 09:31:03;;;;;;;4.72;1.80;;;;;;;27.14;42.48;100989.56;5076200;28;20075;-83
2022/06/26 09:33:34;;;;;;;4.07;2.08;;;;;;;27.15;43.02;100995.88;5078004;28;20052;-83
2022/06/26 09:36:04;;;;;;;4.80;1.83;;;;;;;27.16;42.73;100981.25;5078492;28;20051;-82
2022/06/26 09:38:35;;;;;;;3.60;1.75;;;;;;;27.17;42.26;100985.66;5079103;28;20052;-81
2022/06/26 09:41:06;;;;;;;2.83;1.60;;;;;;;27.17;42.65;100988.38;5078395;28;20045;-82
2022/06/26 09:43:39;;;;;;;3.65;2.10;;;;;;;27.18;42.89;100980.03;5078736;28;20044;-81
2022/06/26 09:46:11;;;;;;;3.55;1.70;;;;;;;27.20;42.42;100988.03;5077618;28;20049;-79
2022/06/26 09:48:40;;;;;;;3.25;1.92;;;;;;;27.22;42.75;100980.50;5076630;28;20048;-76
2022/06/26 09:51:10;;;;;;;3.75;2.08;;;;;;;27.25;41.95;100985.59;5075509;28;20059;-81
2022/06/26 09:53:39;;;;;;;4.93;1.88;;;;;;;27.28;41.62;100987.97;5075506;28;20045;-80
2022/06/26 09:56:07;;;;;;;4.35;1.77;;;;;;;27.30;42.42;100989.44;5076266;28;20075;-82
2022/06/26 09:58:35;;;;;;;4.90;1.88;;;;;;;27.30;42.28;100992.16;5076569;28;20051;-81
2022/06/26 10:06:37;;;;;;;6.00;2.22;;;;;;;27.31;42.15;100988.44;5075939;28;20040;-81
2022/06/26 10:09:07;;;;;;;5.55;2.08;;;;;;;27.31;42.36;100985.72;5075253;28;20100;-82
2022/06/26 10:11:37;;;;;;;4.93;1.83;;;;;;;27.32;42.38;100987.41;5075018;28;20063;-82
2022/06/26 10:14:04;;;;;;;4.53;2.20;;;;;;;27.35;41.83;100987.06;5076215;28;20488;-82
2022/06/26 10:16:47;;;;;;;5.43;1.75;;;;;;;27.38;42.31;100974.13;5076124;28;20496;-84
2022/06/26 10:19:22;;;;;;;3.00;1.67;;;;;;;27.38;42.06;100961.38;5077506;28;20048;-82
2022/06/26 10:21:51;;;;;;;4.10;1.90;;;;;;;27.37;42.19;100962.41;5076971;28;20067;-82
2022/06/26 10:24:18;;;;;;;6.50;2.58;;;;;;;27.39;42.41;100965.78;5076738;28;20404;-82
2022/06/26 10:26:54;;;;;;;3.83;1.90;;;;;;;27.39;42.73;100954.06;5076790;28;20045;-86
2022/06/26 10:29:38;;;;;;;4.55;2.00;;;;;;;27.40;42.94;100961.19;5073600;28;20496;-80
2022/06/26 10:32:07;;;;;;;4.32;2.00;;;;;;;27.41;41.68;100952.84;5076763;28;20499;-81
2022/06/26 10:34:35;;;;;;;4.82;2.20;;;;;;;27.44;41.84;100960.66;5075150;28;20049;-80
2022/06/26 10:37:03;;;;;;;8.27;2.20;;;;;;;27.46;41.88;100950.41;5073254;28;20060;-79
2022/06/26 10:39:42;;;;;;;3.45;1.90;;;;;;;27.46;44.30;100952.31;5076560;28;20052;-80
2022/06/26 10:45:12;;;;;;;3.22;1.85;;;;;;;27.70;42.63;100946.63;5074602;28;20045;-81
2022/06/26 10:47:41;;;;;;;3.80;1.95;;;;;;;27.70;45.35;100948.53;5074561;28;20048;-83
2022/06/26 10:50:28;;;;;;;4.35;1.73;;;;;;;27.66;46.87;100930.88;5076309;28;20051;-80
2022/06/26 10:53:21;;;;;;;4.50;2.00;;;;;;;27.61;46.74;100929.56;5076341;28;20041;-79
2022/06/26 10:56:01;;;;;;;3.63;2.15;;;;;;;27.58;45.74;100924.47;5075028;28;20051;-80
2022/06/26 10:58:35;;;;;;;8.02;2.20;;;;;;;27.57;43.13;100925.50;5075063;28;20049;-83
2022/06/26 11:01:05;;;;;;;4.13;2.05;;;;;;;27.76;41.97;100934.22;5073512;28;20060;-82
2022/06/26 11:03:34;;;;;;;5.35;2.08;;;;;;;27.80;42.55;100925.50;5074921;28;20427;-82
2022/06/26 11:06:03;;;;;;;6.07;2.33;;;;;;;27.81;43.20;100921.75;5074516;28;20044;-81
2022/06/26 11:08:33;;;;;;;5.03;2.30;;;;;;;27.78;43.33;100913.94;5072402;28;20048;-80
2022/06/26 11:11:06;;;;;;;5.30;2.28;;;;;;;27.74;43.61;100912.63;5073498;28;20503;-81
2022/06/26 11:13:36;;;;;;;4.10;1.88;;;;;;;27.72;43.74;100917.41;5073045;28;20056;-80
2022/06/26 11:16:04;;;;;;;3.05;1.95;;;;;;;27.69;43.53;100909.59;5073624;28;20071;-80
2022/06/26 11:18:35;;;;;;;4.35;1.88;;;;;;;27.67;43.91;100908.94;5073886;28;20401;-82
2022/06/26 11:21:03;;;;;;;4.72;1.85;;;;;;;27.65;43.63;100897.41;5056564;28;20055;-81
2022/06/26 11:23:38;;;;;;;3.67;1.95;;;;;;;27.64;43.62;100898.44;5074477;28;20526;-82
2022/06/26 11:26:11;;;;;;;3.30;1.77;;;;;;;27.61;43.70;100891.47;5074799;28;20044;-82
2022/06/26 11:28:41;;;;;;;4.07;2.08;;;;;;;27.61;43.94;100883.31;5075442;28;20480;-82
2022/06/26 11:31:11;;;;;;;2.88;1.55;;;;;;;27.60;44.25;100881.63;5075420;28;20048;-82
2022/06/26 11:33:42;;;;;;;3.85;1.70;;;;;;;27.60;44.39;100887.09;5075205;28;20067;-81
2022/06/26 11:36:13;;;;;;;3.67;1.98;;;;;;;27.60;44.55;100878.09;5074780;28;20051;-81
2022/06/26 11:38:55;;;;;;;4.80;2.58;;;;;;;27.61;44.11;100886.03;5074632;28;20044;-81
2022/06/26 11:41:24;;;;;;;3.80;2.08;;;;;;;27.62;44.18;100873.28;5060877;28;20045;-81
2022/06/26 11:43:56;;;;;;;4.28;2.55;;;;;;;27.63;44.16;100879.56;5037433;28;20055;-81
2022/06/26 11:46:24;;;;;;;4.75;1.80;;;;;;;27.61;44.27;100867.00;5054249;28;20053;-81
2022/06/26 11:48:53;;;;;;;3.45;1.77;;;;;;;27.61;44.71;100872.44;5053518;28;20051;-81
2022/06/26 11:51:23;;;;;;;4.07;2.05;;;;;;;27.62;44.83;100867.84;5053195;28;20045;-81